createdAt,value
2018-02-14T00:01:48.416Z,96616.23
2018-02-14T00:04:15.482Z,96609.07
2018-02-14T00:06:42.522Z,96613.55
2018-02-14T00:09:09.544Z,96620.95
2018-02-14T00:11:36.562Z,96613.62
2018-02-14T00:14:03.628Z,96621.94
2018-02-14T00:16:30.646Z,96619.43
2018-02-14T00:18:57.706Z,96617.11
2018-02-14T00:21:24.768Z,96620.38
2018-02-14T00:23:51.823Z,96619.66
2018-02-14T00:26:19.290Z,96625.16
2018-02-14T00:28:46.312Z,96625.09
2018-02-14T00:31:13.387Z,96623.45
2018-02-14T00:33:40.455Z,96624.66
2018-02-14T00:36:07.497Z,96628.13
2018-02-14T00:38:34.566Z,96634.09
2018-02-14T00:41:01.606Z,96638.77
2018-02-14T00:43:28.664Z,96643.01
2018-02-14T00:45:55.724Z,96638.66
2018-02-14T00:48:22.898Z,96632.25
2018-02-14T00:50:49.968Z,96625.42
2018-02-14T00:53:17.005Z,96636.48
2018-02-14T00:55:44.163Z,96637.66
2018-02-14T00:58:11.200Z,96632.00
2018-02-14T01:00:38.224Z,96622.72
2018-02-14T01:03:05.236Z,96634.59
2018-02-14T01:05:32.265Z,96635.47
2018-02-14T01:07:59.332Z,96643.78
2018-02-14T01:10:26.360Z,96636.31
2018-02-14T01:12:53.447Z,96644.81
2018-02-14T01:15:20.466Z,96640.98
2018-02-14T01:17:47.514Z,96653.53
2018-02-14T01:20:14.535Z,96649.48
2018-02-14T01:22:41.621Z,96655.39
2018-02-14T01:25:08.704Z,96652.69
2018-02-14T01:27:35.665Z,96660.46
2018-02-14T01:30:02.820Z,96648.52
2018-02-14T01:32:29.916Z,96655.59
2018-02-14T01:34:57.002Z,96661.48
2018-02-14T01:37:24.122Z,96659.55
2018-02-14T01:39:51.210Z,96664.22
2018-02-14T01:42:18.257Z,96660.50
2018-02-14T01:44:45.283Z,96663.57
2018-02-14T01:47:12.317Z,96673.25
2018-02-14T01:49:39.372Z,96671.63
2018-02-14T01:52:06.376Z,96667.66
2018-02-14T01:54:33.412Z,96669.94
2018-02-14T01:57:00.463Z,96671.23
2018-02-14T01:59:27.482Z,96672.52
2018-02-14T02:01:54.513Z,96675.25
2018-02-14T02:04:21.612Z,96671.95
2018-02-14T02:06:48.671Z,96672.06
2018-02-14T02:09:15.686Z,96662.91
2018-02-14T02:11:42.747Z,96661.36
2018-02-14T02:14:09.789Z,96665.07
2018-02-14T02:16:36.851Z,96669.70
2018-02-14T02:19:03.868Z,96671.48
2018-02-14T02:21:30.950Z,96680.06
2018-02-14T02:23:58.037Z,96676.76
2018-02-14T02:26:25.102Z,96674.81
2018-02-14T02:28:52.128Z,96679.78
2018-02-14T02:31:19.159Z,96676.83
2018-02-14T02:33:46.255Z,96681.53
2018-02-14T02:36:13.272Z,96677.70
2018-02-14T02:38:40.319Z,96679.16
2018-02-14T02:41:07.420Z,96679.17
2018-02-14T02:43:34.474Z,96683.42
2018-02-14T02:46:01.489Z,96678.19
2018-02-14T02:48:28.437Z,96686.13
2018-02-14T02:50:55.448Z,96683.63
2018-02-14T02:53:22.450Z,96689.16
2018-02-14T02:55:49.510Z,96683.50
2018-02-14T02:58:16.641Z,96689.66
2018-02-14T03:03:16.963Z,96701.05
2018-02-14T03:05:44.006Z,96695.95
2018-02-14T03:08:11.092Z,96705.09
2018-02-14T03:10:38.137Z,96704.55
2018-02-14T03:13:05.193Z,96705.64
2018-02-14T03:15:32.204Z,96697.06
2018-02-14T03:17:59.267Z,96706.00
2018-02-14T03:20:26.511Z,96704.45
2018-02-14T03:22:53.500Z,96704.55
2018-02-14T03:25:20.749Z,96708.80
2018-02-14T03:27:47.768Z,96716.48
2018-02-14T03:30:14.803Z,96707.52
2018-02-14T03:32:41.864Z,96714.39
2018-02-14T03:35:08.926Z,96718.41
2018-02-14T03:37:35.998Z,96723.08
2018-02-14T03:40:03.012Z,96728.02
2018-02-14T03:42:29.994Z,96737.14
2018-02-14T03:44:56.989Z,96737.52
2018-02-14T03:47:24.023Z,96741.95
2018-02-14T03:49:51.085Z,96746.78
2018-02-14T03:52:18.241Z,96747.46
2018-02-14T03:54:45.238Z,96751.22
2018-02-14T03:57:12.310Z,96745.11
2018-02-14T03:59:39.388Z,96751.11
2018-02-14T04:02:06.411Z,96749.28
2018-02-14T04:06:59.745Z,96758.32
2018-02-14T04:09:26.756Z,96756.91
2018-02-14T04:11:53.755Z,96753.45
2018-02-14T04:14:20.766Z,96764.27
2018-02-14T04:16:47.784Z,96771.94
2018-02-14T04:19:14.831Z,96771.53
2018-02-14T04:21:41.891Z,96770.89
2018-02-14T04:24:08.961Z,96773.44
2018-02-14T04:26:36.025Z,96785.75
2018-02-14T04:29:03.083Z,96792.58
2018-02-14T04:31:30.090Z,96788.48
2018-02-14T04:33:57.150Z,96795.80
2018-02-14T04:36:24.299Z,96802.38
2018-02-14T04:38:51.473Z,96806.48
2018-02-14T04:41:18.505Z,96805.53
2018-02-14T04:46:11.885Z,96803.81
2018-02-14T04:48:38.928Z,96804.12
2018-02-14T04:51:06.042Z,96812.38
2018-02-14T04:53:33.135Z,96818.76
2018-02-14T04:56:00.174Z,96816.59
2018-02-14T04:58:27.267Z,96812.78
2018-02-14T05:00:54.296Z,96809.48
2018-02-14T05:03:21.303Z,96819.54
2018-02-14T05:05:48.339Z,96815.59
2018-02-14T05:08:15.363Z,96829.45
2018-02-14T05:10:42.382Z,96827.02
2018-02-14T05:13:09.451Z,96828.47
2018-02-14T05:15:36.480Z,96826.46
2018-02-14T05:18:03.523Z,96831.75
2018-02-14T05:20:30.577Z,96843.25
2018-02-14T05:22:57.583Z,96849.86
2018-02-14T05:25:24.628Z,96854.56
2018-02-14T05:27:51.646Z,96862.14
2018-02-14T05:30:18.685Z,96866.13
2018-02-14T05:32:45.695Z,96871.25
2018-02-14T05:35:12.725Z,96879.17
2018-02-14T05:37:39.838Z,96883.95
2018-02-14T05:40:06.914Z,96891.14
2018-02-14T05:42:33.918Z,96883.02
2018-02-14T05:45:00.967Z,96873.91
2018-02-14T05:47:27.990Z,96884.66
2018-02-14T05:49:55.047Z,96887.23
2018-02-14T05:52:22.116Z,96884.55
2018-02-14T05:54:49.164Z,96892.74
2018-02-14T05:57:16.224Z,96892.38
2018-02-14T05:59:43.231Z,96903.30
2018-02-14T06:02:10.185Z,96905.36
2018-02-14T06:04:37.280Z,96903.81
2018-02-14T06:07:04.692Z,96909.66
2018-02-14T06:09:31.747Z,96911.22
2018-02-14T06:11:58.775Z,96916.60
2018-02-14T06:14:25.822Z,96913.98
2018-02-14T06:16:52.846Z,96911.09
2018-02-14T06:19:19.947Z,96914.49
2018-02-14T06:21:46.967Z,96920.59
2018-02-14T06:24:14.105Z,96923.31
2018-02-14T06:26:41.166Z,96929.94
2018-02-14T06:29:09.160Z,96938.33
2018-02-14T06:31:36.174Z,96942.41
2018-02-14T06:34:03.129Z,96955.29
2018-02-14T06:36:30.134Z,96963.88
2018-02-14T06:38:57.145Z,96965.17
2018-02-14T06:41:24.252Z,96976.34
2018-02-14T06:43:51.320Z,96973.76
2018-02-14T06:46:18.405Z,96972.89
2018-02-14T06:48:45.449Z,96968.80
2018-02-14T06:51:12.472Z,96965.80
2018-02-14T06:53:39.544Z,96961.92
2018-02-14T06:56:06.649Z,96962.58
2018-02-14T06:58:33.734Z,96959.12
2018-02-14T07:01:00.765Z,96973.33
2018-02-14T07:03:27.815Z,96974.52
2018-02-14T07:05:54.821Z,96986.08
2018-02-14T07:08:21.795Z,96987.06
2018-02-14T07:10:48.864Z,96988.18
2018-02-14T07:13:15.984Z,96989.50
2018-02-14T07:15:43.036Z,96987.41
2018-02-14T07:18:10.079Z,96995.80
2018-02-14T07:20:37.115Z,96992.33
2018-02-14T07:23:04.341Z,97002.03
2018-02-14T07:25:31.349Z,96999.00
2018-02-14T07:27:58.353Z,96997.74
2018-02-14T07:30:25.365Z,97003.72
2018-02-14T07:32:52.394Z,96999.97
2018-02-14T07:35:19.447Z,96995.88
2018-02-14T07:37:46.466Z,97007.85
2018-02-14T07:40:13.502Z,97009.64
2018-02-14T07:42:40.545Z,97013.94
2018-02-14T07:45:07.607Z,97020.75
2018-02-14T07:47:34.669Z,97025.33
2018-02-14T07:50:01.774Z,97029.46
2018-02-14T07:52:28.720Z,97031.23
2018-02-14T07:54:55.786Z,97037.56
2018-02-14T07:57:22.835Z,97042.97
2018-02-14T07:59:49.911Z,97043.78
2018-02-14T08:02:16.927Z,97046.99
2018-02-14T08:04:43.963Z,97048.56
2018-02-14T08:07:10.968Z,97043.87
2018-02-14T08:09:37.996Z,97044.47
2018-02-14T08:12:05.050Z,97047.69
2018-02-14T08:14:32.108Z,97047.62
2018-02-14T08:16:59.143Z,97055.23
2018-02-14T08:19:26.471Z,97053.45
2018-02-14T08:21:53.460Z,97052.54
2018-02-14T08:24:20.529Z,97051.91
2018-02-14T08:26:47.573Z,97054.70
2018-02-14T08:29:14.668Z,97057.52
2018-02-14T08:31:41.602Z,97057.19
2018-02-14T08:34:08.664Z,97057.61
2018-02-14T08:36:35.680Z,97056.77
2018-02-14T08:39:02.753Z,97061.20
2018-02-14T08:41:29.773Z,97060.43
2018-02-14T08:43:56.843Z,97062.06
2018-02-14T08:46:23.850Z,97059.66
2018-02-14T08:48:50.904Z,97063.05
2018-02-14T08:51:17.940Z,97064.47
2018-02-14T08:53:44.922Z,97072.73
2018-02-14T08:56:12.036Z,97074.93
2018-02-14T08:58:39.139Z,97074.09
2018-02-14T09:01:06.255Z,97079.08
2018-02-14T09:03:33.331Z,97083.16
2018-02-14T09:06:00.354Z,97083.77
2018-02-14T09:08:27.426Z,97094.33
2018-02-14T09:10:54.503Z,97101.62
2018-02-14T09:13:21.563Z,97101.41
2018-02-14T09:15:48.495Z,97104.58
2018-02-14T09:18:15.525Z,97112.34
2018-02-14T09:20:42.697Z,97108.56
2018-02-14T09:23:09.700Z,97114.91
2018-02-14T09:25:36.705Z,97125.33
2018-02-14T09:28:03.730Z,97126.86
2018-02-14T09:30:30.739Z,97125.92
2018-02-14T09:32:57.766Z,97128.48
2018-02-14T09:35:24.802Z,97129.13
2018-02-14T09:37:52.038Z,97126.24
2018-02-14T09:40:19.036Z,97121.53
2018-02-14T09:42:46.009Z,97120.05
2018-02-14T09:45:13.059Z,97124.42
2018-02-14T09:47:40.076Z,97124.42
2018-02-14T09:50:07.140Z,97125.03
2018-02-14T09:52:34.229Z,97125.66
2018-02-14T09:55:01.331Z,97123.49
2018-02-14T09:57:28.402Z,97126.19
2018-02-14T09:59:55.455Z,97124.52
2018-02-14T10:02:22.461Z,97126.19
2018-02-14T10:04:49.506Z,97118.36
2018-02-14T10:07:16.562Z,97114.88
2018-02-14T10:09:43.658Z,97114.31
2018-02-14T10:12:10.670Z,97120.00
2018-02-14T10:14:37.719Z,97122.96
2018-02-14T10:17:04.767Z,97121.45
2018-02-14T10:19:31.766Z,97120.24
2018-02-14T10:21:58.808Z,97122.67
2018-02-14T10:24:25.905Z,97114.39
2018-02-14T10:26:52.941Z,97120.66
2018-02-14T10:29:19.994Z,97120.91
2018-02-14T10:31:47.150Z,97122.55
2018-02-14T10:34:14.210Z,97119.87
2018-02-14T10:36:41.215Z,97125.81
2018-02-14T10:39:08.200Z,97124.38
2018-02-14T10:41:35.201Z,97126.56
2018-02-14T10:44:02.254Z,97126.35
2018-02-14T10:46:29.248Z,97132.37
2018-02-14T10:48:56.273Z,97131.50
2018-02-14T10:51:23.224Z,97131.78
2018-02-14T10:53:50.262Z,97126.09
2018-02-14T10:56:17.579Z,97127.69
2018-02-14T10:58:44.531Z,97120.07
2018-02-14T11:01:17.278Z,97124.91
2018-02-14T11:03:44.241Z,97122.30
2018-02-14T11:06:13.034Z,97122.77
2018-02-14T11:08:40.003Z,97117.91
2018-02-14T11:11:07.074Z,97120.34
2018-02-14T11:13:34.100Z,97111.42
2018-02-14T11:16:01.086Z,97106.02
2018-02-14T11:18:28.084Z,97105.72
2018-02-14T11:20:55.128Z,97102.89
2018-02-14T11:23:22.138Z,97099.86
2018-02-14T11:25:49.231Z,97102.45
2018-02-14T11:28:16.362Z,97089.58
2018-02-14T11:30:43.381Z,97091.44
2018-02-14T11:33:10.403Z,97088.52
2018-02-14T11:35:37.435Z,97087.42
2018-02-14T11:38:04.478Z,97090.05
2018-02-14T11:40:31.545Z,97081.37
2018-02-14T11:42:58.546Z,97080.90
2018-02-14T11:45:25.614Z,97079.31
2018-02-14T11:47:52.678Z,97073.80
2018-02-14T11:50:19.628Z,97076.19
2018-02-14T11:52:46.991Z,97072.88
2018-02-14T11:55:14.038Z,97077.50
2018-02-14T11:57:41.110Z,97067.75
2018-02-14T12:00:09.458Z,97060.89
2018-02-14T12:02:36.567Z,97058.30
2018-02-14T12:05:03.571Z,97063.37
2018-02-14T12:07:30.570Z,97070.64
2018-02-14T12:09:57.601Z,97075.91
2018-02-14T12:12:24.635Z,97076.17
2018-02-14T12:14:51.661Z,97078.16
2018-02-14T12:19:51.995Z,97069.46
2018-02-14T12:22:19.074Z,97063.14
2018-02-14T12:24:46.132Z,97061.17
2018-02-14T12:27:13.342Z,97070.94
2018-02-14T12:29:40.354Z,97071.23
2018-02-14T12:32:07.407Z,97065.20
2018-02-14T12:34:34.482Z,97070.34
2018-02-14T12:37:01.565Z,97047.57
2018-02-14T12:39:28.629Z,97047.34
2018-02-14T12:41:55.642Z,97045.16
2018-02-14T12:44:22.679Z,97030.05
2018-02-14T12:46:49.759Z,97029.45
2018-02-14T12:49:16.778Z,97030.53
2018-02-14T12:51:43.891Z,97021.03
2018-02-14T12:54:10.958Z,97017.20
2018-02-14T12:56:38.012Z,97034.56
2018-02-14T12:59:05.066Z,97027.42
2018-02-14T13:01:32.116Z,97015.81
2018-02-14T13:03:59.168Z,97016.52
2018-02-14T13:06:26.234Z,97014.12
2018-02-14T13:08:53.245Z,97015.39
2018-02-14T13:11:20.253Z,97017.55
2018-02-14T13:13:47.258Z,97006.66
2018-02-14T13:16:14.277Z,97018.08
2018-02-14T13:18:41.344Z,97024.05
2018-02-14T13:21:08.361Z,97020.34
2018-02-14T13:23:35.378Z,97015.64
2018-02-14T13:26:02.667Z,97015.05
2018-02-14T13:28:29.710Z,97013.25
2018-02-14T13:30:56.790Z,97006.84
2018-02-14T13:33:23.939Z,97010.36
2018-02-14T13:35:51.017Z,97012.86
2018-02-14T13:38:17.997Z,97015.62
2018-02-14T13:40:45.023Z,97008.50
2018-02-14T13:43:12.064Z,97003.80
2018-02-14T13:45:39.120Z,97001.64
2018-02-14T13:48:06.179Z,97008.73
2018-02-14T13:50:33.242Z,97005.17
2018-02-14T13:53:00.733Z,97004.22
2018-02-14T13:55:27.765Z,97000.16
2018-02-14T13:57:54.785Z,96998.02
2018-02-14T14:00:21.784Z,96997.66
2018-02-14T14:02:48.747Z,97007.07
2018-02-14T14:05:15.758Z,96997.52
2018-02-14T14:07:42.811Z,97001.11
2018-02-14T14:10:09.867Z,97000.44
2018-02-14T14:12:36.892Z,97002.43
2018-02-14T14:15:03.940Z,96997.14
2018-02-14T14:17:30.986Z,96995.41
2018-02-14T14:19:58.160Z,97000.05
2018-02-14T14:22:25.131Z,96999.00
2018-02-14T14:24:52.181Z,96991.26
2018-02-14T14:27:19.209Z,96989.14
2018-02-14T14:29:46.261Z,96997.14
2018-02-14T14:32:13.322Z,96998.14
2018-02-14T14:34:40.359Z,96997.83
2018-02-14T14:37:07.450Z,97005.89
2018-02-14T14:39:34.531Z,97009.12
2018-02-14T14:42:01.679Z,97004.92
2018-02-14T14:44:28.694Z,96999.90
2018-02-14T14:46:55.702Z,97009.39
2018-02-14T14:49:22.782Z,97016.30
2018-02-14T14:51:49.809Z,97004.45
2018-02-14T14:54:16.867Z,97003.09
2018-02-14T14:56:44.069Z,97005.05
2018-02-14T14:59:11.079Z,97020.07
2018-02-14T15:01:38.086Z,97013.38
2018-02-14T15:04:05.084Z,97025.55
2018-02-14T15:06:32.103Z,97024.80
2018-02-14T15:08:59.124Z,97020.23
2018-02-14T15:11:26.188Z,97022.69
2018-02-14T15:13:53.243Z,97018.52
2018-02-14T15:16:20.301Z,97026.27
2018-02-14T15:18:47.352Z,97019.81
2018-02-14T15:21:14.427Z,97027.02
2018-02-14T15:23:41.573Z,97024.09
2018-02-14T15:26:08.660Z,97024.75
2018-02-14T15:28:35.695Z,97027.63
2018-02-14T15:31:02.712Z,97030.46
2018-02-14T15:33:29.738Z,97033.53
2018-02-14T15:35:56.805Z,97039.57
2018-02-14T15:38:23.817Z,97042.23
2018-02-14T15:40:50.806Z,97045.82
2018-02-14T15:43:17.834Z,97046.56
2018-02-14T15:45:44.840Z,97053.97
2018-02-14T15:48:11.848Z,97063.06
2018-02-14T15:50:38.792Z,97069.87
2018-02-14T15:53:05.859Z,97068.86
2018-02-14T15:55:32.920Z,97074.10
2018-02-14T15:57:59.919Z,97068.13
2018-02-14T16:00:26.945Z,97062.47
2018-02-14T16:02:53.984Z,97068.66
2018-02-14T16:05:20.948Z,97074.45
2018-02-14T16:07:47.961Z,97069.23
2018-02-14T16:10:14.995Z,97064.44
2018-02-14T16:12:42.275Z,97062.62
2018-02-14T16:15:09.276Z,97060.43
2018-02-14T16:17:36.294Z,97062.47
2018-02-14T16:20:03.338Z,97072.72
2018-02-14T16:22:30.316Z,97070.73
2018-02-14T16:24:57.314Z,97071.91
2018-02-14T16:27:24.406Z,97073.89
2018-02-14T16:29:51.347Z,97084.31
2018-02-14T16:32:18.366Z,97081.06
2018-02-14T16:34:45.427Z,97089.19
2018-02-14T16:37:12.421Z,97091.13
2018-02-14T16:39:39.483Z,97086.89
2018-02-14T16:42:06.412Z,97087.37
2018-02-14T16:44:33.466Z,97084.52
2018-02-14T16:47:00.473Z,97090.30
2018-02-14T16:49:27.502Z,97091.97
2018-02-14T16:51:54.658Z,97084.15
2018-02-14T16:54:21.851Z,97083.29
2018-02-14T16:56:48.906Z,97088.56
2018-02-14T16:59:15.958Z,97089.48
2018-02-14T17:01:42.973Z,97087.54
2018-02-14T17:04:10.056Z,97081.56
2018-02-14T17:06:37.131Z,97080.82
2018-02-14T17:09:04.147Z,97090.00
2018-02-14T17:11:31.174Z,97093.66
2018-02-14T17:13:58.193Z,97100.06
2018-02-14T17:16:25.211Z,97098.20
2018-02-14T17:18:52.370Z,97100.68
2018-02-14T17:21:19.787Z,97092.28
2018-02-14T17:23:46.885Z,97094.98
2018-02-14T17:26:13.994Z,97099.28
2018-02-14T17:28:40.992Z,97104.62
2018-02-14T17:31:08.038Z,97102.20
2018-02-14T17:33:35.071Z,97103.92
2018-02-14T17:36:02.179Z,97107.63
2018-02-14T17:38:29.237Z,97117.31
2018-02-14T17:40:57.155Z,97114.76
2018-02-14T17:43:24.177Z,97115.69
2018-02-14T17:45:51.173Z,97118.05
2018-02-14T17:48:18.170Z,97115.53
2018-02-14T17:50:45.219Z,97125.83
2018-02-14T17:53:12.530Z,97126.16
2018-02-14T17:55:39.577Z,97124.22
2018-02-14T17:58:06.590Z,97121.75
2018-02-14T18:00:33.544Z,97126.07
2018-02-14T18:03:00.867Z,97125.22
2018-02-14T18:05:27.987Z,97124.22
2018-02-14T18:07:55.064Z,97120.50
2018-02-14T18:10:22.143Z,97118.88
2018-02-14T18:12:49.234Z,97116.88
2018-02-14T18:15:16.282Z,97121.14
2018-02-14T18:17:43.329Z,97119.37
2018-02-14T18:20:10.413Z,97121.60
2018-02-14T18:22:37.494Z,97123.48
2018-02-14T18:25:04.892Z,97120.56
2018-02-14T18:30:05.399Z,97122.70
2018-02-14T18:32:32.509Z,97131.53
2018-02-14T18:34:59.537Z,97126.30
2018-02-14T18:37:26.519Z,97124.17
2018-02-14T18:39:53.501Z,97134.34
2018-02-14T18:42:20.513Z,97134.05
2018-02-14T18:44:47.577Z,97129.03
2018-02-14T18:47:14.584Z,97134.67
2018-02-14T18:49:41.595Z,97130.83
2018-02-14T18:52:08.684Z,97140.70
2018-02-14T18:54:35.881Z,97142.24
2018-02-14T18:57:02.954Z,97145.08
2018-02-14T18:59:30.783Z,97157.06
2018-02-14T19:01:57.820Z,97159.73
2018-02-14T19:04:24.858Z,97166.30
2018-02-14T19:06:51.888Z,97168.47
2018-02-14T19:09:18.974Z,97171.56
2018-02-14T19:11:45.981Z,97172.85
2018-02-14T19:14:13.016Z,97176.33
2018-02-14T19:16:40.110Z,97184.98
2018-02-14T19:19:07.184Z,97189.86
2018-02-14T19:21:34.274Z,97189.44
2018-02-14T19:24:01.288Z,97186.35
2018-02-14T19:26:28.501Z,97193.59
2018-02-14T19:28:55.651Z,97190.99
2018-02-14T19:31:22.692Z,97199.95
2018-02-14T19:33:49.746Z,97193.73
2018-02-14T19:36:16.814Z,97188.93
2018-02-14T19:38:43.832Z,97188.97
2018-02-14T19:41:10.883Z,97186.08
2018-02-14T19:43:37.950Z,97189.66
2018-02-14T19:46:04.990Z,97194.08
2018-02-14T19:48:31.996Z,97195.83
2018-02-14T19:50:59.197Z,97200.57
2018-02-14T19:53:26.236Z,97194.52
2018-02-14T19:55:53.395Z,97206.55
2018-02-14T19:58:20.395Z,97200.00
2018-02-14T20:00:47.405Z,97206.24
2018-02-14T20:03:14.408Z,97212.19
2018-02-14T20:05:41.539Z,97215.66
2018-02-14T20:08:09.327Z,97216.56
2018-02-14T20:10:36.405Z,97219.27
2018-02-14T20:13:03.413Z,97213.16
2018-02-14T20:15:30.480Z,97218.53
2018-02-14T20:17:57.528Z,97211.28
2018-02-14T20:20:24.587Z,97209.53
2018-02-14T20:22:51.644Z,97196.67
2018-02-14T20:25:18.805Z,97203.84
2018-02-14T20:27:45.798Z,97200.27
2018-02-14T20:30:13.216Z,97199.39
2018-02-14T20:32:40.310Z,97193.10
2018-02-14T20:35:07.411Z,97192.14
2018-02-14T20:37:34.439Z,97198.44
2018-02-14T20:40:01.501Z,97194.09
2018-02-14T20:42:28.490Z,97199.20
2018-02-14T20:44:55.475Z,97198.55
2018-02-14T20:47:22.479Z,97195.16
2018-02-14T20:49:49.693Z,97188.87
2018-02-14T20:52:16.735Z,97193.51
2018-02-14T20:54:43.742Z,97203.57
2018-02-14T20:57:10.743Z,97205.28
2018-02-14T20:59:37.783Z,97205.20
2018-02-14T21:02:04.815Z,97205.30
2018-02-14T21:07:05.125Z,97202.66
2018-02-14T21:09:32.228Z,97198.36
2018-02-14T21:11:59.173Z,97199.08
2018-02-14T21:14:26.513Z,97213.90
2018-02-14T21:16:53.578Z,97219.23
2018-02-14T21:19:20.660Z,97221.52
2018-02-14T21:21:47.759Z,97220.45
2018-02-14T21:24:14.838Z,97233.59
2018-02-14T21:26:41.901Z,97227.39
2018-02-14T21:29:08.906Z,97229.53
2018-02-14T21:31:35.978Z,97221.38
2018-02-14T21:34:03.072Z,97226.09
2018-02-14T21:36:30.152Z,97230.84
2018-02-14T21:38:57.202Z,97229.91
2018-02-14T21:41:24.268Z,97229.25
2018-02-14T21:43:51.253Z,97233.02
2018-02-14T21:46:18.310Z,97239.27
2018-02-14T21:48:45.338Z,97226.36
2018-02-14T21:51:12.278Z,97220.50
2018-02-14T21:53:39.347Z,97216.20
2018-02-14T21:56:06.448Z,97220.22
2018-02-14T21:58:33.473Z,97224.38
2018-02-14T22:01:00.601Z,97222.56
2018-02-14T22:03:27.696Z,97215.61
2018-02-14T22:05:54.699Z,97224.17
2018-02-14T22:08:21.719Z,97227.33
2018-02-14T22:10:48.859Z,97223.80
2018-02-14T22:13:16.027Z,97219.35
2018-02-14T22:15:43.096Z,97223.93
2018-02-14T22:18:10.109Z,97221.97
2018-02-14T22:20:37.231Z,97221.80
2018-02-14T22:23:04.312Z,97219.17
2018-02-14T22:25:31.430Z,97215.61
2018-02-14T22:27:58.456Z,97209.41
2018-02-14T22:30:25.571Z,97201.77
2018-02-14T22:32:52.617Z,97209.11
2018-02-14T22:35:19.692Z,97201.52
2018-02-14T22:37:46.762Z,97204.94
2018-02-14T22:40:13.843Z,97200.05
2018-02-14T22:42:40.878Z,97197.27
2018-02-14T22:45:07.914Z,97198.83
2018-02-14T22:47:34.974Z,97191.68
2018-02-14T22:50:01.989Z,97195.95
2018-02-14T22:52:29.088Z,97189.97
2018-02-14T22:54:56.116Z,97196.33
2018-02-14T22:57:23.166Z,97199.83
2018-02-14T22:59:50.152Z,97200.85
2018-02-14T23:02:17.168Z,97198.61
2018-02-14T23:04:44.248Z,97211.41
2018-02-14T23:07:11.304Z,97212.91
2018-02-14T23:09:38.426Z,97216.86
2018-02-14T23:12:05.374Z,97227.56
2018-02-14T23:14:32.436Z,97220.60
2018-02-14T23:16:59.813Z,97216.41
2018-02-14T23:19:26.867Z,97217.78
2018-02-14T23:21:53.861Z,97215.88
2018-02-14T23:24:20.803Z,97207.45
2018-02-14T23:26:47.879Z,97212.25
2018-02-14T23:29:14.903Z,97206.18
2018-02-14T23:31:41.916Z,97210.42
2018-02-14T23:34:08.930Z,97205.14
2018-02-14T23:36:35.920Z,97203.45
2018-02-14T23:39:02.962Z,97204.66
2018-02-14T23:41:30.002Z,97212.86
2018-02-14T23:43:57.026Z,97210.11
2018-02-14T23:46:24.093Z,97209.94
2018-02-14T23:48:51.073Z,97205.28
2018-02-14T23:51:18.085Z,97210.08
2018-02-14T23:53:45.172Z,97202.13
2018-02-14T23:58:45.632Z,97200.69
